Main page
METAR-TAF:

METAR-TAF

Airports :

London City Airport

London, England

latitude: 51-30N, longitude: 000-03E, elevation: 5 m

Current weather observation

The report was made 30 minutes ago, at 15:50 UTC
Wind 8 kt from the South/Southwest, varying between South/Southeast and West/Southwest
Temperature 22°C
Humidity 65%
Pressure 1013 hPa
Visibility 10 km or more

METAR: EGLC 201550Z AUTO 20008KT 150V250 9999 NCD 22/15 Q1013

Time: 17:20 (16:20 UTC)

Forecast

The report was made 2 hours and 16 minutes ago, at 14:04 UTC
Forecast valid from 20 at 15 UTC to 20 at 21 UTC
Wind 6 kt from the Southeast
Visibility 10 km or more
Few clouds at a height of 4500 ft
Probability 30% :
Temporary
from 20 at 15 UTC to 20 at 21 UTC
Visibility: 4000 m
thunderstorm, heavy rain

TAF: EGLC 201404Z 2015/2021 14006KT 9999 FEW045 PROB30 TEMPO 2015/2021 4000 +TSRA

Weather observations and forecasts of more than 4000 airports (METAR and TAF reports).

The available stations are represented by yellow and red dots on the map.

Hover mouse over dot to see the name of the station.

Then click to see weather observations and forecasts.

To change the map : click on the green buttons with a black cross to zoom in, on the green button with a dash to zoom out, or on the green arrows for adjacent maps.


METAR-TAF: